Time;durP1;ratioP1;P1;durP2;ratioP2;P2;SDS_P1;SDS_P2;PMS_P1;PMS_P2;Temp;Humidity;BMP_temperature;BMP_pressure;BME280_temperature;BME280_humidity;BME280_pressure;Samples;Min_cycle;Max_cycle;Signal;HPM_P1;HPM_P2
2023/08/17 00:01:44;;;;;;;8.52;2.35;;;16.00;99.90;;;;;;5029565;28;20523;-86
2023/08/17 00:04:10;;;;;;;8.40;1.88;;;16.10;99.90;;;;;;5027512;28;20084;-86
2023/08/17 00:06:36;;;;;;;9.98;2.30;;;16.10;99.90;;;;;;5044649;28;20135;-86
2023/08/17 00:09:03;;;;;;;9.30;2.17;;;16.10;99.90;;;;;;5036720;28;20180;-85
2023/08/17 00:11:29;;;;;;;8.13;2.35;;;16.10;99.90;;;;;;5061071;28;20041;-86
2023/08/17 00:13:55;;;;;;;9.05;1.88;;;16.10;99.90;;;;;;5046725;28;20059;-86
2023/08/17 00:16:21;;;;;;;9.35;2.38;;;16.00;99.90;;;;;;5046218;28;20094;-86
2023/08/17 00:18:48;;;;;;;10.82;2.28;;;16.00;99.90;;;;;;5045818;28;20435;-86
2023/08/17 00:21:14;;;;;;;7.28;1.63;;;16.00;99.90;;;;;;5027324;28;20405;-86
2023/08/17 00:23:42;;;;;;;8.05;2.00;;;16.00;99.90;;;;;;5038477;28;20036;-86
2023/08/17 00:26:09;;;;;;;9.18;2.05;;;16.00;99.90;;;;;;5046200;28;20083;-86
2023/08/17 00:28:35;;;;;;;7.13;2.45;;;16.00;99.90;;;;;;5030603;28;20520;-86
2023/08/17 00:31:01;;;;;;;5.38;1.83;;;16.00;99.90;;;;;;5042606;28;20063;-86
2023/08/17 00:33:27;;;;;;;8.57;2.17;;;16.00;99.90;;;;;;5040022;28;20072;-86
2023/08/17 00:35:53;;;;;;;12.25;1.88;;;16.00;99.90;;;;;;5045647;28;20037;-87
2023/08/17 00:38:18;;;;;;;7.20;1.80;;;16.00;99.90;;;;;;5063044;28;20132;-85
2023/08/17 00:40:44;;;;;;;6.35;1.30;;;16.00;99.90;;;;;;5062731;28;20048;-86
2023/08/17 00:43:10;;;;;;;6.70;1.85;;;16.10;99.90;;;;;;5069084;28;20045;-86
2023/08/17 00:45:37;;;;;;;6.45;1.90;;;16.00;99.90;;;;;;5043585;28;20044;-86
2023/08/17 00:48:07;;;;;;;6.93;1.88;;;16.00;99.90;;;;;;5025820;28;20045;-86
2023/08/17 00:50:34;;;;;;;8.20;2.15;;;16.00;99.90;;;;;;5041161;28;20068;-86
2023/08/17 00:53:01;;;;;;;8.25;2.35;;;16.00;99.90;;;;;;5051805;28;20405;-86
2023/08/17 00:55:28;;;;;;;10.60;2.05;;;16.00;99.90;;;;;;5046540;28;20115;-86
2023/08/17 00:57:56;;;;;;;6.55;2.00;;;15.90;99.90;;;;;;5042141;28;20045;-86
2023/08/17 01:00:23;;;;;;;7.18;1.75;;;15.90;99.90;;;;;;5045705;28;20496;-86
2023/08/17 01:02:49;;;;;;;9.45;2.17;;;15.80;99.90;;;;;;5029129;28;20036;-86
2023/08/17 01:05:15;;;;;;;6.80;1.80;;;15.80;99.90;;;;;;5030403;28;20556;-87
2023/08/17 01:07:41;;;;;;;8.43;1.95;;;15.80;99.90;;;;;;5045596;28;20041;-86
2023/08/17 01:10:08;;;;;;;8.80;2.10;;;15.70;99.90;;;;;;5016734;28;20047;-86
2023/08/17 01:12:44;;;;;;;9.38;1.35;;;15.70;99.90;;;;;;5059623;28;20053;-86
2023/08/17 01:15:24;;;;;;;8.60;2.00;;;15.70;99.90;;;;;;5079808;28;20052;-85
2023/08/17 01:18:10;;;;;;;7.07;2.13;;;15.70;99.90;;;;;;5046309;28;20043;-86
2023/08/17 01:20:36;;;;;;;8.10;1.85;;;15.70;99.90;;;;;;5025629;28;20533;-85
2023/08/17 01:23:06;;;;;;;6.72;1.80;;;15.70;99.90;;;;;;5045638;28;20123;-86
2023/08/17 01:25:38;;;;;;;10.27;1.88;;;15.70;99.90;;;;;;5029820;28;20541;-86
2023/08/17 01:28:04;;;;;;;8.37;2.07;;;15.70;99.90;;;;;;5066857;28;20390;-86
2023/08/17 01:30:49;;;;;;;9.15;2.20;;;15.70;99.90;;;;;;5063144;28;20048;-86
2023/08/17 01:33:26;;;;;;;5.68;1.90;;;15.70;99.90;;;;;;5025956;28;20057;-86
2023/08/17 01:35:55;;;;;;;10.10;2.17;;;15.60;99.90;;;;;;5072594;28;20614;-85
2023/08/17 01:38:23;;;;;;;6.57;2.08;;;15.60;99.90;;;;;;5072344;28;20045;-86
2023/08/17 01:40:50;;;;;;;6.88;1.95;;;15.60;99.90;;;;;;5041729;28;20408;-86
2023/08/17 01:43:17;;;;;;;6.60;2.15;;;15.60;99.90;;;;;;5039608;28;20124;-86
2023/08/17 01:45:43;;;;;;;6.95;2.03;;;15.50;99.90;;;;;;5046383;28;20109;-86
2023/08/17 01:48:08;;;;;;;7.07;2.15;;;15.50;99.90;;;;;;5042387;28;20045;-85
2023/08/17 01:50:34;;;;;;;6.60;1.83;;;15.50;99.90;;;;;;5075114;28;20040;-86
2023/08/17 01:53:00;;;;;;;8.15;2.30;;;15.50;99.90;;;;;;5035439;28;20493;-86
2023/08/17 01:55:26;;;;;;;6.43;1.95;;;15.50;99.90;;;;;;5028535;28;20036;-85
2023/08/17 01:57:52;;;;;;;10.25;2.90;;;15.50;99.90;;;;;;5044854;28;20070;-85
2023/08/17 02:00:18;;;;;;;10.05;2.50;;;15.40;99.90;;;;;;5045669;28;20489;-86
2023/08/17 02:02:44;;;;;;;8.75;2.20;;;15.40;99.90;;;;;;5039956;28;20052;-86
2023/08/17 02:05:10;;;;;;;6.45;2.33;;;15.40;99.90;;;;;;5078568;28;20052;-85
2023/08/17 02:07:35;;;;;;;6.43;1.85;;;15.40;99.90;;;;;;5026165;28;20042;-86
2023/08/17 02:10:01;;;;;;;9.60;2.58;;;15.40;99.90;;;;;;5061326;28;20042;-86
2023/08/17 02:12:27;;;;;;;8.80;2.40;;;15.40;99.90;;;;;;5048984;28;20151;-86
2023/08/17 02:14:53;;;;;;;12.60;2.92;;;15.40;99.90;;;;;;5048488;28;20167;-85
2023/08/17 02:17:21;;;;;;;7.88;2.42;;;15.40;99.90;;;;;;5044755;28;20052;-86
2023/08/17 02:19:47;;;;;;;10.27;3.13;;;15.40;99.90;;;;;;5082046;28;20481;-86
2023/08/17 02:22:13;;;;;;;8.20;2.42;;;15.30;99.90;;;;;;5046183;28;20045;-86
2023/08/17 02:24:40;;;;;;;6.45;2.40;;;15.30;99.90;;;;;;5048065;28;20593;-86
2023/08/17 02:27:06;;;;;;;9.75;2.85;;;15.30;99.90;;;;;;5031923;28;20091;-86
2023/08/17 02:29:32;;;;;;;10.93;2.72;;;15.30;99.90;;;;;;5029467;28;20045;-86
2023/08/17 02:31:58;;;;;;;10.70;2.88;;;15.30;99.90;;;;;;5038894;28;20394;-86
2023/08/17 02:34:23;;;;;;;8.90;2.75;;;15.20;99.90;;;;;;5032910;28;20459;-86
2023/08/17 02:36:51;;;;;;;9.80;2.63;;;15.20;99.90;;;;;;5048315;28;20044;-85
2023/08/17 02:39:17;;;;;;;14.10;3.20;;;15.20;99.90;;;;;;5045033;28;20124;-86
2023/08/17 02:41:44;;;;;;;11.02;3.15;;;15.20;99.90;;;;;;5073453;28;20565;-85
2023/08/17 02:44:10;;;;;;;7.10;2.30;;;15.20;99.90;;;;;;5048494;28;20041;-86
2023/08/17 02:46:36;;;;;;;6.70;2.85;;;15.20;99.90;;;;;;5030598;28;20121;-85
2023/08/17 02:49:02;;;;;;;8.57;2.40;;;15.20;99.90;;;;;;5048789;28;20458;-85
2023/08/17 02:51:28;;;;;;;11.73;2.10;;;15.30;99.90;;;;;;5048268;28;20572;-85
2023/08/17 02:53:54;;;;;;;6.78;1.90;;;15.30;99.90;;;;;;5040413;28;20092;-85
2023/08/17 02:56:19;;;;;;;9.85;1.90;;;15.30;99.90;;;;;;5043855;28;20116;-86
2023/08/17 02:58:45;;;;;;;8.88;2.10;;;15.30;99.90;;;;;;5031117;28;20135;-85
2023/08/17 03:01:11;;;;;;;11.45;2.50;;;15.40;99.90;;;;;;5047634;28;20119;-86
2023/08/17 03:03:36;;;;;;;11.95;2.40;;;15.40;99.90;;;;;;5027935;28;20096;-85
2023/08/17 03:06:03;;;;;;;7.88;2.60;;;15.40;99.90;;;;;;5053931;28;20063;-85
2023/08/17 03:08:29;;;;;;;9.43;2.33;;;15.40;99.90;;;;;;5044685;28;20116;-85
2023/08/17 03:10:54;;;;;;;6.88;2.15;;;15.40;99.90;;;;;;5047572;28;20140;-85
2023/08/17 03:13:20;;;;;;;10.60;2.38;;;15.40;99.90;;;;;;5047806;28;20041;-86
2023/08/17 03:15:46;;;;;;;8.43;2.30;;;15.40;99.90;;;;;;5027136;28;20045;-85
2023/08/17 03:18:12;;;;;;;8.95;2.63;;;15.30;99.90;;;;;;5047642;28;20130;-85
2023/08/17 03:20:38;;;;;;;9.02;3.15;;;15.30;99.90;;;;;;5062561;28;20477;-85
2023/08/17 03:23:08;;;;;;;8.85;2.30;;;15.30;99.90;;;;;;5025765;28;20030;-85
2023/08/17 03:25:34;;;;;;;7.10;2.60;;;15.30;99.90;;;;;;5040834;28;20061;-85
2023/08/17 03:28:00;;;;;;;8.88;2.47;;;15.30;99.90;;;;;;5063544;28;20455;-85
2023/08/17 03:30:26;;;;;;;7.03;2.47;;;15.30;99.90;;;;;;5048170;28;20036;-85
2023/08/17 03:32:52;;;;;;;6.95;2.45;;;15.30;99.90;;;;;;5062829;28;20057;-85
2023/08/17 03:35:18;;;;;;;8.40;2.83;;;15.30;99.90;;;;;;5034543;28;20475;-86
2023/08/17 03:37:45;;;;;;;9.23;3.03;;;15.30;99.90;;;;;;5047860;28;20038;-85
2023/08/17 03:40:11;;;;;;;7.22;2.20;;;15.30;99.90;;;;;;5058645;28;20071;-85
2023/08/17 03:42:36;;;;;;;6.13;2.22;;;15.30;99.90;;;;;;5030213;28;20098;-86
2023/08/17 03:45:03;;;;;;;8.07;2.22;;;15.30;99.90;;;;;;5047339;28;20431;-85
2023/08/17 03:47:29;;;;;;;6.55;1.92;;;15.30;99.90;;;;;;5030862;28;20443;-85
2023/08/17 03:49:54;;;;;;;7.80;2.30;;;15.30;99.90;;;;;;5047299;28;20049;-85
2023/08/17 03:52:20;;;;;;;8.77;2.00;;;15.30;99.90;;;;;;5047747;28;20033;-85
2023/08/17 03:54:46;;;;;;;8.63;2.10;;;15.20;99.90;;;;;;5030484;28;20607;-85
2023/08/17 03:57:12;;;;;;;5.97;1.73;;;15.20;99.90;;;;;;5029638;28;20041;-85
2023/08/17 03:59:38;;;;;;;8.73;2.33;;;15.20;99.90;;;;;;5047303;28;20049;-85
2023/08/17 04:02:04;;;;;;;7.45;2.20;;;15.20;99.90;;;;;;5026089;28;20501;-86
2023/08/17 04:04:29;;;;;;;7.20;2.45;;;15.20;99.90;;;;;;5042554;28;20435;-86
2023/08/17 04:06:55;;;;;;;11.35;2.03;;;15.20;99.90;;;;;;5047921;28;20128;-86
2023/08/17 04:09:21;;;;;;;7.40;2.00;;;15.20;99.90;;;;;;5046347;28;20047;-86
2023/08/17 04:11:46;;;;;;;7.60;2.05;;;15.20;99.90;;;;;;5029829;28;20476;-85
2023/08/17 04:14:13;;;;;;;9.88;2.53;;;15.10;99.90;;;;;;5047119;28;20080;-85
2023/08/17 04:16:39;;;;;;;7.60;2.35;;;15.10;99.90;;;;;;5032337;28;20124;-84
2023/08/17 04:19:05;;;;;;;5.35;1.88;;;15.10;99.90;;;;;;5030231;28;20056;-84
2023/08/17 04:21:31;;;;;;;8.38;1.98;;;15.10;99.90;;;;;;5043198;28;20072;-86
2023/08/17 04:23:56;;;;;;;8.50;2.38;;;15.10;99.90;;;;;;5017173;28;20056;-85
2023/08/17 04:26:23;;;;;;;9.10;2.17;;;15.10;99.90;;;;;;5025944;28;20045;-86
2023/08/17 04:28:49;;;;;;;7.00;1.90;;;15.10;99.90;;;;;;5041025;28;20049;-86
2023/08/17 04:31:17;;;;;;;8.65;2.03;;;15.10;99.90;;;;;;5046561;28;20044;-86
2023/08/17 04:33:42;;;;;;;7.82;1.92;;;15.10;99.90;;;;;;5046127;28;20061;-86
2023/08/17 04:36:08;;;;;;;8.95;2.00;;;15.10;99.90;;;;;;5025051;28;20041;-86
2023/08/17 04:38:34;;;;;;;6.40;1.85;;;15.00;99.90;;;;;;5054851;28;20084;-86
2023/08/17 04:40:59;;;;;;;11.65;1.92;;;15.00;99.90;;;;;;5045713;28;20081;-87
2023/08/17 04:43:25;;;;;;;8.00;2.25;;;15.00;99.90;;;;;;5048172;28;20056;-86
2023/08/17 04:45:51;;;;;;;10.23;2.22;;;15.00;99.90;;;;;;5027088;28;20675;-86
2023/08/17 04:48:17;;;;;;;8.43;2.38;;;15.00;99.90;;;;;;5044930;28;20148;-85
2023/08/17 04:50:42;;;;;;;9.10;2.50;;;15.00;99.90;;;;;;5040546;28;20041;-86
2023/08/17 04:53:08;;;;;;;7.40;2.20;;;15.00;99.90;;;;;;5070122;28;20268;-87
2023/08/17 04:55:34;;;;;;;8.70;2.10;;;15.00;99.90;;;;;;5044315;28;20041;-86
2023/08/17 04:57:59;;;;;;;10.45;2.10;;;15.00;99.90;;;;;;5045536;28;20076;-86
2023/08/17 05:00:27;;;;;;;11.00;2.05;;;15.00;99.90;;;;;;5044983;28;20043;-86
2023/08/17 05:02:55;;;;;;;10.25;2.22;;;15.00;99.90;;;;;;5028801;28;20443;-87
2023/08/17 05:05:21;;;;;;;6.35;2.08;;;15.00;99.90;;;;;;5026742;28;20493;-86
2023/08/17 05:07:46;;;;;;;8.00;2.30;;;15.10;99.90;;;;;;5070488;28;20045;-86
2023/08/17 05:10:13;;;;;;;6.65;2.33;;;15.10;99.90;;;;;;5027123;28;20119;-86
2023/08/17 05:12:42;;;;;;;9.98;2.45;;;15.00;99.90;;;;;;5070411;28;20672;-87
2023/08/17 05:15:08;;;;;;;7.85;2.50;;;15.10;99.90;;;;;;5046766;28;20048;-87
2023/08/17 05:17:33;;;;;;;9.93;2.90;;;15.10;99.90;;;;;;5029414;28;20053;-86
2023/08/17 05:19:59;;;;;;;8.95;2.05;;;15.10;99.90;;;;;;5028432;28;20052;-86
2023/08/17 05:22:25;;;;;;;6.45;2.08;;;15.10;99.90;;;;;;5047368;28;20167;-86
2023/08/17 05:24:53;;;;;;;13.38;2.50;;;15.20;99.90;;;;;;5062465;28;20072;-86
2023/08/17 05:27:19;;;;;;;11.45;2.53;;;15.30;99.90;;;;;;5062264;28;20059;-86
2023/08/17 05:29:45;;;;;;;8.30;2.15;;;15.30;99.90;;;;;;5026005;28;20408;-86
2023/08/17 05:32:10;;;;;;;11.55;1.90;;;15.40;99.90;;;;;;5056775;28;20048;-86
2023/08/17 05:34:36;;;;;;;9.02;2.03;;;15.50;99.90;;;;;;5028641;28;20045;-87
2023/08/17 05:37:02;;;;;;;7.60;2.00;;;15.60;99.90;;;;;;5045579;28;20037;-86
2023/08/17 05:39:28;;;;;;;10.20;2.47;;;15.70;99.90;;;;;;5046862;28;20056;-86
2023/08/17 05:41:54;;;;;;;8.90;1.80;;;15.70;99.90;;;;;;5044788;28;20052;-85
2023/08/17 05:44:20;;;;;;;6.18;1.50;;;15.80;99.90;;;;;;5068771;28;20033;-86
2023/08/17 05:46:45;;;;;;;9.68;1.67;;;15.90;99.90;;;;;;5034691;28;20454;-87
2023/08/17 05:49:11;;;;;;;6.78;1.80;;;15.90;99.90;;;;;;5085131;28;20083;-86
2023/08/17 05:51:40;;;;;;;9.98;1.95;;;16.00;99.90;;;;;;5052124;28;20037;-86
2023/08/17 05:54:05;;;;;;;7.28;1.80;;;16.10;99.90;;;;;;5069428;28;20045;-86
2023/08/17 05:56:34;;;;;;;6.57;1.88;;;16.10;99.90;;;;;;5035012;28;20492;-86
2023/08/17 05:59:00;;;;;;;10.93;2.30;;;16.20;99.90;;;;;;5049466;28;20045;-87
2023/08/17 06:01:25;;;;;;;11.00;1.85;;;16.20;99.90;;;;;;5029360;28;20048;-86
2023/08/17 06:03:51;;;;;;;10.95;1.90;;;16.30;99.90;;;;;;5056774;28;20068;-86
2023/08/17 06:06:17;;;;;;;6.90;1.75;;;16.40;99.90;;;;;;5052251;28;20045;-86
2023/08/17 06:08:43;;;;;;;9.68;2.03;;;16.50;99.90;;;;;;5051243;28;20047;-86
2023/08/17 06:11:09;;;;;;;12.88;1.85;;;16.50;99.90;;;;;;5035452;28;20144;-87
2023/08/17 06:13:35;;;;;;;9.10;1.85;;;16.60;99.90;;;;;;5032083;28;20184;-86
2023/08/17 06:16:01;;;;;;;10.05;1.92;;;16.70;99.90;;;;;;5045572;28;20036;-87
2023/08/17 06:18:27;;;;;;;11.80;1.85;;;16.70;99.90;;;;;;5035862;28;20033;-87
2023/08/17 06:20:53;;;;;;;9.30;1.80;;;16.70;99.90;;;;;;5035025;28;20538;-86
2023/08/17 06:23:20;;;;;;;11.52;1.92;;;16.80;99.90;;;;;;5068463;28;20036;-87
2023/08/17 06:25:45;;;;;;;8.32;1.80;;;16.90;99.90;;;;;;5034979;28;20049;-86
2023/08/17 06:28:11;;;;;;;8.60;1.98;;;16.90;99.90;;;;;;5028362;28;20037;-86
2023/08/17 06:30:37;;;;;;;7.60;1.70;;;17.00;99.90;;;;;;5062842;28;20510;-87
2023/08/17 06:33:04;;;;;;;8.13;1.60;;;17.00;99.90;;;;;;5064963;28;20054;-86
2023/08/17 06:35:30;;;;;;;8.60;1.48;;;17.10;99.90;;;;;;5064550;28;20103;-87
2023/08/17 06:37:57;;;;;;;9.43;1.58;;;17.20;99.90;;;;;;5030666;28;20045;-87
2023/08/17 06:40:24;;;;;;;6.78;1.20;;;17.20;99.90;;;;;;5048337;28;20055;-87
2023/08/17 06:42:50;;;;;;;9.50;1.42;;;17.20;99.90;;;;;;5052170;28;20098;-87
2023/08/17 06:45:18;;;;;;;6.20;1.42;;;17.20;99.90;;;;;;5069088;28;20044;-88
2023/08/17 06:47:45;;;;;;;5.38;1.23;;;17.20;99.90;;;;;;5047498;28;20041;-87
2023/08/17 06:50:11;;;;;;;7.38;1.58;;;17.20;99.90;;;;;;5063729;28;20140;-87
2023/08/17 06:52:40;;;;;;;8.70;1.63;;;17.20;99.90;;;;;;5032715;28;20045;-87
2023/08/17 06:55:06;;;;;;;4.80;1.10;;;17.30;99.90;;;;;;5049524;28;20044;-89
2023/08/17 06:57:32;;;;;;;7.13;1.30;;;17.30;99.90;;;;;;5029226;28;20061;-86
2023/08/17 06:59:58;;;;;;;5.78;1.20;;;17.40;99.90;;;;;;5027834;28;20408;-87
2023/08/17 07:02:23;;;;;;;5.25;1.23;;;17.60;99.90;;;;;;5048497;28;20138;-87
2023/08/17 07:04:49;;;;;;;7.55;1.40;;;17.70;99.90;;;;;;5031484;28;20519;-89
2023/08/17 07:07:15;;;;;;;5.88;1.10;;;17.70;99.90;;;;;;5022986;28;20095;-88
2023/08/17 07:09:40;;;;;;;7.55;1.42;;;17.70;99.90;;;;;;5062064;28;20390;-87
2023/08/17 07:12:06;;;;;;;5.30;1.10;;;17.70;99.90;;;;;;5048528;28;20115;-88
2023/08/17 07:14:33;;;;;;;6.50;1.20;;;17.60;99.90;;;;;;5049295;28;20686;-87
2023/08/17 07:16:59;;;;;;;7.53;1.20;;;17.60;99.90;;;;;;5048322;28;20117;-87
2023/08/17 07:19:25;;;;;;;4.25;0.75;;;17.60;99.90;;;;;;5050067;28;20033;-88
2023/08/17 07:21:51;;;;;;;6.10;1.20;;;17.60;99.90;;;;;;5032372;28;20053;-87
2023/08/17 07:24:17;;;;;;;5.72;0.95;;;17.60;99.90;;;;;;5048978;28;20075;-88
2023/08/17 07:26:42;;;;;;;4.72;1.17;;;17.70;99.90;;;;;;5047767;28;20121;-87
2023/08/17 07:29:08;;;;;;;3.38;0.70;;;17.80;99.90;;;;;;5032182;28;20435;-87
2023/08/17 07:31:37;;;;;;;5.97;1.02;;;17.80;99.90;;;;;;5028012;28;20061;-87
2023/08/17 07:34:06;;;;;;;3.97;1.00;;;17.80;99.90;;;;;;5080105;28;20396;-91
2023/08/17 07:36:32;;;;;;;6.05;1.10;;;17.80;99.90;;;;;;5046047;28;20117;-87
2023/08/17 07:38:58;;;;;;;4.95;0.90;;;17.90;99.90;;;;;;5061075;28;20384;-87
2023/08/17 07:41:24;;;;;;;4.38;0.90;;;17.90;99.90;;;;;;5030312;28;20040;-86
2023/08/17 07:43:50;;;;;;;5.07;0.90;;;17.90;99.90;;;;;;5056813;28;20048;-88
2023/08/17 07:46:16;;;;;;;4.88;1.08;;;18.00;99.90;;;;;;5043497;28;20041;-88
2023/08/17 07:48:42;;;;;;;9.35;1.17;;;18.00;99.90;;;;;;5056498;28;20055;-90
2023/08/17 07:51:07;;;;;;;4.32;0.70;;;18.00;99.90;;;;;;5066175;28;20056;-89
2023/08/17 07:53:33;;;;;;;8.45;1.27;;;18.10;99.90;;;;;;5020672;28;20056;-90
2023/08/17 07:55:59;;;;;;;6.63;0.85;;;18.10;99.90;;;;;;5064865;28;20500;-89
2023/08/17 07:58:24;;;;;;;3.58;0.85;;;18.10;99.90;;;;;;5036458;28;20033;-89
2023/08/17 08:00:50;;;;;;;3.38;0.73;;;18.20;99.90;;;;;;5039021;28;20385;-90
2023/08/17 08:03:16;;;;;;;7.30;0.90;;;18.20;99.90;;;;;;5032506;28;20045;-93
2023/08/17 08:05:42;;;;;;;6.15;0.88;;;18.30;99.90;;;;;;5028404;28;20265;-88
2023/08/17 08:08:07;;;;;;;6.47;0.88;;;18.30;99.90;;;;;;5045553;28;20056;-89
2023/08/17 08:10:33;;;;;;;5.63;1.02;;;18.40;99.90;;;;;;5018926;28;20502;-90
2023/08/17 08:12:59;;;;;;;8.65;1.00;;;18.30;99.90;;;;;;5047546;28;20037;-90
2023/08/17 08:15:24;;;;;;;7.75;1.00;;;18.40;99.90;;;;;;5026792;28;20041;-90
2023/08/17 08:17:50;;;;;;;3.33;0.82;;;18.30;99.90;;;;;;5018777;28;20040;-89
2023/08/17 08:20:16;;;;;;;5.53;1.20;;;18.20;99.90;;;;;;5046552;28;20480;-87
2023/08/17 08:22:42;;;;;;;3.58;1.02;;;18.20;99.90;;;;;;5046466;28;20500;-87
2023/08/17 08:25:08;;;;;;;7.13;1.10;;;18.20;99.90;;;;;;5030592;28;20041;-88
2023/08/17 08:27:33;;;;;;;5.72;0.73;;;18.30;99.90;;;;;;5029864;28;20458;-88
2023/08/17 08:29:59;;;;;;;6.03;1.17;;;18.20;99.90;;;;;;5028459;28;20091;-88
2023/08/17 08:32:25;;;;;;;7.38;0.85;;;18.30;99.90;;;;;;5027984;28;20128;-88
2023/08/17 08:34:51;;;;;;;3.67;0.60;;;18.30;99.90;;;;;;5045467;28;20533;-88
2023/08/17 08:37:17;;;;;;;3.45;0.70;;;18.40;99.90;;;;;;5027944;28;20037;-88
2023/08/17 08:39:53;;;;;;;6.18;0.95;;;18.40;99.90;;;;;;5024279;28;20128;-89
2023/08/17 08:42:20;;;;;;;7.25;0.98;;;18.40;99.90;;;;;;5027766;28;20238;-88
2023/08/17 08:44:46;;;;;;;5.35;1.13;;;18.40;99.90;;;;;;5060622;28;20404;-89
2023/08/17 08:47:13;;;;;;;7.85;0.93;;;18.40;99.90;;;;;;5062257;28;20037;-88
2023/08/17 08:49:49;;;;;;;4.20;1.08;;;18.50;99.90;;;;;;5062342;28;20052;-88
2023/08/17 08:52:22;;;;;;;9.07;0.98;;;18.50;99.90;;;;;;5062055;28;20036;-88
2023/08/17 08:54:51;;;;;;;5.28;0.90;;;18.60;99.90;;;;;;5046867;28;20041;-88
2023/08/17 08:57:18;;;;;;;5.03;0.95;;;18.60;99.90;;;;;;5030972;28;20380;-88
2023/08/17 08:59:46;;;;;;;3.17;0.80;;;18.70;99.90;;;;;;5044357;28;20073;-89
2023/08/17 09:02:16;;;;;;;6.63;1.10;;;18.80;99.90;;;;;;5047233;28;20041;-89
2023/08/17 09:04:45;;;;;;;3.25;0.85;;;18.80;99.90;;;;;;5030028;28;20033;-90
2023/08/17 09:07:17;;;;;;;3.90;0.60;;;18.90;99.90;;;;;;5028271;28;20139;-89
2023/08/17 09:09:45;;;;;;;7.10;0.93;;;19.00;99.90;;;;;;5077401;28;20048;-88
2023/08/17 09:12:11;;;;;;;7.47;1.25;;;19.10;99.90;;;;;;5064094;28;20057;-88
2023/08/17 09:14:37;;;;;;;5.38;0.90;;;19.20;99.90;;;;;;5030694;28;20056;-89
2023/08/17 09:17:04;;;;;;;11.95;1.20;;;19.40;99.90;;;;;;5046966;28;20057;-88
2023/08/17 09:19:34;;;;;;;4.95;0.70;;;19.50;99.90;;;;;;5033524;28;20040;-89
2023/08/17 09:22:01;;;;;;;3.67;0.70;;;19.70;99.90;;;;;;5064320;28;20037;-89
2023/08/17 09:24:37;;;;;;;4.82;0.98;;;19.90;99.90;;;;;;5030830;28;20554;-88
2023/08/17 09:27:03;;;;;;;4.53;0.70;;;20.00;99.90;;;;;;5046654;28;20065;-89
2023/08/17 09:29:37;;;;;;;4.68;0.82;;;20.00;99.90;;;;;;5047424;28;20041;-88
2023/08/17 09:32:07;;;;;;;4.22;1.00;;;19.80;99.90;;;;;;5026459;28;20067;-88
2023/08/17 09:34:33;;;;;;;6.80;0.80;;;19.70;99.90;;;;;;5060157;28;20045;-90
2023/08/17 09:37:05;;;;;;;7.03;1.10;;;19.60;99.90;;;;;;5044824;28;20038;-89
2023/08/17 09:39:34;;;;;;;4.40;0.75;;;19.50;99.90;;;;;;5044169;28;20553;-89
2023/08/17 09:42:00;;;;;;;6.97;1.10;;;19.50;99.90;;;;;;5040782;28;20045;-88
2023/08/17 09:44:27;;;;;;;5.20;0.95;;;19.60;99.90;;;;;;5047748;28;20033;-88
2023/08/17 09:46:56;;;;;;;4.20;0.77;;;19.70;99.90;;;;;;5028153;28;20171;-88
2023/08/17 09:49:24;;;;;;;6.75;0.98;;;19.80;99.90;;;;;;5030940;28;20040;-89
2023/08/17 09:51:52;;;;;;;6.72;1.30;;;19.80;99.90;;;;;;5062759;28;20090;-89
2023/08/17 09:54:26;;;;;;;4.38;1.02;;;19.90;99.90;;;;;;5046671;28;20449;-88
2023/08/17 09:56:53;;;;;;;7.95;1.08;;;19.80;99.90;;;;;;5029308;28;20052;-88
2023/08/17 09:59:20;;;;;;;7.18;1.20;;;19.90;99.90;;;;;;5047205;28;20049;-89
2023/08/17 10:01:50;;;;;;;5.43;0.98;;;20.10;99.90;;;;;;5045078;28;20048;-88
2023/08/17 10:04:22;;;;;;;4.60;1.05;;;20.30;99.90;;;;;;5047382;28;20091;-88
2023/08/17 10:06:52;;;;;;;8.50;1.30;;;20.30;99.90;;;;;;5029904;28;20463;-89
2023/08/17 10:09:25;;;;;;;6.82;1.38;;;20.30;99.90;;;;;;5043747;28;20045;-90
2023/08/17 10:11:53;;;;;;;2.85;0.70;;;20.20;99.90;;;;;;5059964;28;20045;-89
2023/08/17 10:14:29;;;;;;;9.02;1.50;;;20.00;99.90;;;;;;5037141;28;20095;-90
2023/08/17 10:17:01;;;;;;;5.07;0.90;;;20.00;99.90;;;;;;5026098;28;20129;-89
2023/08/17 10:20:00;;;;;;;8.00;1.10;;;20.00;99.90;;;;;;5061063;28;20052;-89
2023/08/17 10:22:34;;;;;;;6.03;1.02;;;20.20;99.90;;;;;;5046129;28;20053;-88
2023/08/17 10:25:01;;;;;;;7.35;0.85;;;20.30;99.90;;;;;;5046887;28;20484;-90
2023/08/17 10:27:28;;;;;;;4.85;1.08;;;20.50;99.90;;;;;;5030604;28;20067;-90
2023/08/17 10:29:55;;;;;;;5.38;1.05;;;20.70;99.90;;;;;;5049062;28;20048;-91
2023/08/17 10:32:25;;;;;;;7.75;0.98;;;21.10;99.90;;;;;;5066618;28;20129;-91
2023/08/17 10:34:52;;;;;;;8.63;1.10;;;21.40;99.90;;;;;;5064174;28;20109;-90
2023/08/17 10:37:19;;;;;;;3.97;0.80;;;21.80;99.90;;;;;;5049387;28;20037;-93
2023/08/17 10:39:46;;;;;;;3.65;0.82;;;22.10;99.90;;;;;;5050079;28;20041;-90
2023/08/17 10:42:13;;;;;;;7.93;1.35;;;22.20;99.90;;;;;;5055462;28;20184;-90
2023/08/17 10:44:45;;;;;;;7.90;1.25;;;22.10;99.90;;;;;;5033377;28;20098;-91
2023/08/17 10:47:29;;;;;;;5.35;1.17;;;22.00;99.90;;;;;;5034114;28;20338;-90
2023/08/17 10:50:03;;;;;;;6.72;0.90;;;22.10;99.90;;;;;;5050205;28;20048;-91
2023/08/17 10:52:31;;;;;;;6.53;1.00;;;22.20;99.90;;;;;;5047379;28;20129;-90
2023/08/17 10:55:00;;;;;;;7.28;1.17;;;22.30;99.90;;;;;;5033517;28;20051;-90
2023/08/17 10:57:37;;;;;;;4.40;0.93;;;22.30;99.90;;;;;;5050440;28;20079;-91
2023/08/17 11:00:31;;;;;;;4.97;1.20;;;22.30;99.90;;;;;;5046628;28;20088;-90
2023/08/17 11:03:03;;;;;;;6.85;1.00;;;22.20;99.90;;;;;;5033350;28;20133;-93
2023/08/17 11:05:51;;;;;;;6.22;1.13;;;22.00;99.90;;;;;;5047217;28;20037;-94
2023/08/17 11:08:32;;;;;;;7.13;1.00;;;21.90;99.90;;;;;;5062331;28;20144;-91
2023/08/17 11:11:01;;;;;;;5.65;1.17;;;21.90;99.90;;;;;;5033316;28;20045;-93
2023/08/17 11:13:30;;;;;;;6.20;1.08;;;21.80;99.90;;;;;;5046445;28;20503;-92
2023/08/17 11:15:57;;;;;;;6.82;1.25;;;21.70;99.90;;;;;;5058797;28;20126;-91
2023/08/17 11:18:23;;;;;;;4.93;1.10;;;21.70;99.90;;;;;;5025368;28;20046;-91
2023/08/17 11:20:50;;;;;;;6.05;1.10;;;21.60;99.90;;;;;;5044494;28;20125;-91
2023/08/17 11:23:16;;;;;;;4.82;1.10;;;21.70;99.90;;;;;;5049946;28;20416;-91
2023/08/17 11:25:42;;;;;;;10.77;1.63;;;21.90;99.90;;;;;;5032384;28;20127;-92
2023/08/17 11:28:09;;;;;;;6.32;1.27;;;22.10;99.90;;;;;;5065605;28;20084;-93
2023/08/17 11:30:37;;;;;;;6.65;1.05;;;22.10;99.90;;;;;;5033776;28;20056;-94
2023/08/17 11:33:03;;;;;;;4.65;0.93;;;22.00;99.90;;;;;;5049065;28;20404;-93
2023/08/17 11:35:29;;;;;;;7.25;1.40;;;21.80;99.90;;;;;;5066575;28;20079;-92
2023/08/17 11:37:55;;;;;;;9.02;1.27;;;21.70;99.90;;;;;;5049598;28;20102;-91
2023/08/17 11:40:20;;;;;;;9.07;1.65;;;21.80;99.90;;;;;;5065466;28;20140;-91
2023/08/17 11:42:47;;;;;;;7.00;1.50;;;21.80;99.90;;;;;;5031750;28;20087;-92
2023/08/17 11:45:13;;;;;;;9.82;1.90;;;21.80;99.90;;;;;;5066461;28;20057;-92
2023/08/17 11:47:40;;;;;;;3.88;0.88;;;21.80;99.90;;;;;;5030947;28;20071;-89
2023/08/17 11:50:08;;;;;;;4.47;1.33;;;21.80;99.90;;;;;;5066387;28;20056;-91
2023/08/17 11:52:36;;;;;;;7.57;1.60;;;21.70;99.90;;;;;;5028887;28;20135;-90
2023/08/17 11:55:05;;;;;;;6.93;1.50;;;21.70;99.90;;;;;;5032411;28;20053;-89
2023/08/17 11:57:31;;;;;;;12.02;1.35;;;21.80;99.90;;;;;;5049206;28;20040;-91
2023/08/17 11:59:58;;;;;;;7.25;1.00;;;21.90;99.90;;;;;;5049018;28;20122;-91
2023/08/17 12:02:24;;;;;;;4.65;1.00;;;22.00;99.90;;;;;;5045186;28;20037;-92
2023/08/17 12:04:55;;;;;;;3.92;1.00;;;22.00;99.90;;;;;;5033436;28;20098;-91
2023/08/17 12:07:23;;;;;;;8.77;1.27;;;22.10;99.90;;;;;;5013097;28;20469;-90
2023/08/17 12:09:49;;;;;;;8.32;1.25;;;22.10;99.90;;;;;;5043147;28;20049;-90
2023/08/17 12:12:22;;;;;;;10.93;1.25;;;22.00;99.90;;;;;;5030836;28;20041;-92
2023/08/17 12:14:48;;;;;;;8.40;1.15;;;21.90;99.90;;;;;;5064661;28;20085;-92
2023/08/17 12:17:16;;;;;;;6.88;1.10;;;22.00;99.90;;;;;;5049017;28;20045;-92
2023/08/17 12:19:42;;;;;;;7.05;1.25;;;22.00;99.90;;;;;;5047707;28;20037;-94
2023/08/17 12:22:08;;;;;;;6.07;1.15;;;22.00;99.90;;;;;;5045615;28;20104;-92
2023/08/17 12:24:35;;;;;;;6.03;1.13;;;22.00;99.90;;;;;;5053699;28;20135;-93
2023/08/17 12:27:02;;;;;;;8.80;1.58;;;21.90;99.90;;;;;;5032273;28;20134;-92
2023/08/17 12:29:28;;;;;;;6.03;0.95;;;21.90;99.90;;;;;;5031520;28;20044;-93
2023/08/17 12:31:56;;;;;;;6.70;1.30;;;21.90;99.90;;;;;;5034956;28;20469;-88
2023/08/17 12:34:22;;;;;;;5.65;1.08;;;21.90;99.90;;;;;;5039435;28;20106;-90
2023/08/17 12:36:49;;;;;;;8.00;1.35;;;21.80;99.90;;;;;;5035923;28;20041;-91
2023/08/17 12:39:15;;;;;;;7.45;1.35;;;21.70;99.90;;;;;;5026869;28;20047;-91
2023/08/17 12:41:41;;;;;;;4.82;1.35;;;21.60;99.90;;;;;;5019300;28;20045;-91
2023/08/17 12:44:09;;;;;;;6.07;1.10;;;21.50;99.90;;;;;;5072721;28;20040;-90
2023/08/17 12:46:35;;;;;;;5.03;0.90;;;21.50;99.90;;;;;;5055762;28;20094;-90